createdAt,value
2018-03-03T00:01:29.292Z,56.27
2018-03-03T00:03:57.617Z,57.63
2018-03-03T00:06:25.943Z,58.58
2018-03-03T00:08:54.295Z,60.61
2018-03-03T00:11:23.418Z,62.33
2018-03-03T00:13:51.753Z,63.06
2018-03-03T00:16:20.106Z,63.25
2018-03-03T00:18:48.429Z,63.23
2018-03-03T00:21:17.529Z,63.22
2018-03-03T00:23:45.842Z,63.29
2018-03-03T00:26:14.214Z,63.54
2018-03-03T00:28:42.778Z,63.75
2018-03-03T00:31:11.117Z,63.34
2018-03-03T00:33:39.443Z,63.40
2018-03-03T00:36:08.084Z,63.00
2018-03-03T00:38:36.414Z,62.98
2018-03-03T00:41:05.839Z,62.68
2018-03-03T00:43:34.180Z,62.40
2018-03-03T00:46:02.500Z,62.18
2018-03-03T00:48:31.577Z,62.14
2018-03-03T00:51:00.695Z,62.07
2018-03-03T00:53:29.802Z,62.12
2018-03-03T00:55:58.148Z,61.92
2018-03-03T00:58:26.482Z,61.77
2018-03-03T01:00:54.816Z,61.87
2018-03-03T01:03:23.141Z,61.22
2018-03-03T01:05:51.451Z,61.52
2018-03-03T01:08:19.778Z,61.57
2018-03-03T01:10:48.147Z,61.73
2018-03-03T01:13:17.249Z,61.88
2018-03-03T01:15:46.357Z,61.91
2018-03-03T01:18:14.691Z,61.71
2018-03-03T01:20:43.049Z,61.54
2018-03-03T01:23:11.399Z,61.32
2018-03-03T01:25:40.499Z,61.35
2018-03-03T01:28:09.688Z,61.04
2018-03-03T01:30:38.810Z,61.21
2018-03-03T01:33:07.141Z,61.19
2018-03-03T01:35:35.470Z,61.39
2018-03-03T01:38:03.795Z,61.21
2018-03-03T01:40:32.138Z,61.06
2018-03-03T01:43:00.461Z,60.95
2018-03-03T01:45:29.539Z,60.68
2018-03-03T01:47:58.709Z,60.62
2018-03-03T01:50:27.050Z,60.68
2018-03-03T01:52:55.379Z,59.72
2018-03-03T01:55:23.703Z,59.83
2018-03-03T01:57:52.031Z,59.94
2018-03-03T02:00:20.371Z,60.11
2018-03-03T02:02:49.462Z,60.02
2018-03-03T02:05:17.786Z,59.87
2018-03-03T02:07:46.123Z,59.44
2018-03-03T02:10:14.458Z,59.53
2018-03-03T02:12:42.770Z,59.44
2018-03-03T02:15:11.106Z,59.28
2018-03-03T02:17:39.440Z,59.35
2018-03-03T02:20:07.771Z,59.30
2018-03-03T02:22:37.131Z,59.23
2018-03-03T02:25:05.449Z,59.39
2018-03-03T02:27:33.767Z,59.51
2018-03-03T02:30:02.100Z,58.91
2018-03-03T02:32:31.212Z,59.35
2018-03-03T02:34:59.562Z,59.00
2018-03-03T02:37:28.658Z,58.85
2018-03-03T02:39:56.992Z,59.15
2018-03-03T02:42:25.658Z,59.32
2018-03-03T02:44:53.993Z,59.08
2018-03-03T02:47:22.350Z,59.06
2018-03-03T02:49:50.675Z,59.06
2018-03-03T02:52:19.885Z,59.11
2018-03-03T02:54:48.260Z,59.07
2018-03-03T02:57:17.370Z,58.67
2018-03-03T02:59:46.468Z,58.29
2018-03-03T03:02:14.811Z,58.89
2018-03-03T03:04:43.132Z,59.02
2018-03-03T03:07:11.464Z,59.01
2018-03-03T03:09:39.792Z,59.17
2018-03-03T03:12:08.889Z,58.32
2018-03-03T03:14:38.020Z,58.59
2018-03-03T03:17:06.519Z,58.91
2018-03-03T03:19:34.845Z,58.75
2018-03-03T03:22:03.942Z,58.69
2018-03-03T03:24:33.037Z,59.08
2018-03-03T03:27:02.133Z,59.18
2018-03-03T03:29:31.246Z,59.20
2018-03-03T03:31:59.595Z,59.28
2018-03-03T03:34:27.962Z,59.61
2018-03-03T03:36:56.283Z,59.79
2018-03-03T03:39:24.607Z,59.82
2018-03-03T03:41:52.919Z,59.68
2018-03-03T03:44:22.035Z,59.80
2018-03-03T03:46:51.143Z,59.93
2018-03-03T03:49:20.255Z,59.88
2018-03-03T03:51:48.573Z,59.98
2018-03-03T03:54:16.924Z,60.09
2018-03-03T03:56:45.251Z,60.27
2018-03-03T03:59:13.573Z,60.87
2018-03-03T04:01:41.896Z,61.10
2018-03-03T04:04:10.234Z,61.43
2018-03-03T04:06:39.234Z,61.49
2018-03-03T04:09:07.558Z,61.50
2018-03-03T04:11:35.886Z,61.84
2018-03-03T04:14:04.973Z,61.94
2018-03-03T04:16:34.082Z,62.09
2018-03-03T04:19:02.392Z,62.28
2018-03-03T04:21:30.725Z,62.57
2018-03-03T04:23:59.808Z,62.48
2018-03-03T04:26:28.129Z,62.40
2018-03-03T04:28:56.448Z,62.65
2018-03-03T04:31:24.775Z,62.74
2018-03-03T04:33:53.934Z,62.76
2018-03-03T04:36:22.258Z,63.03
2018-03-03T04:38:51.367Z,63.26
2018-03-03T04:41:19.707Z,63.24
2018-03-03T04:43:48.015Z,62.95
2018-03-03T04:46:17.097Z,62.90
2018-03-03T04:48:46.175Z,62.88
2018-03-03T04:51:14.523Z,62.63
2018-03-03T04:53:42.837Z,63.04
2018-03-03T04:56:11.184Z,63.36
2018-03-03T05:02:03.996Z,64.37
2018-03-03T05:04:33.086Z,64.34
2018-03-03T05:07:04.629Z,64.25
2018-03-03T05:09:33.725Z,64.50
2018-03-03T05:12:02.829Z,64.46
2018-03-03T05:14:48.724Z,64.63
2018-03-03T05:17:22.519Z,64.87
2018-03-03T05:19:57.053Z,64.67
2018-03-03T05:25:44.395Z,64.17
2018-03-03T05:28:18.150Z,64.04
2018-03-03T05:30:51.861Z,63.87
2018-03-03T05:33:26.648Z,64.10
2018-03-03T05:42:16.341Z,63.23
2018-03-03T05:44:48.057Z,63.30
2018-03-03T05:50:26.689Z,62.62
2018-03-03T05:53:00.619Z,62.43
2018-03-03T05:58:34.027Z,61.76
2018-03-03T06:01:08.677Z,61.57
2018-03-03T06:03:41.367Z,61.36
2018-03-03T06:06:14.134Z,61.27
2018-03-03T06:11:47.579Z,61.12
2018-03-03T06:14:15.940Z,60.88
2018-03-03T06:16:44.976Z,60.91
2018-03-03T06:19:13.287Z,60.77
2018-03-03T06:21:42.405Z,60.68
2018-03-03T06:24:10.724Z,60.63
2018-03-03T06:26:39.027Z,60.43
2018-03-03T06:29:07.333Z,60.68
2018-03-03T06:31:35.711Z,60.72
2018-03-03T06:34:04.855Z,60.41
2018-03-03T06:36:33.169Z,60.08
2018-03-03T06:39:01.500Z,59.77
2018-03-03T06:41:29.859Z,58.72
2018-03-03T06:43:58.193Z,59.11
2018-03-03T06:46:26.522Z,58.99
2018-03-03T06:48:55.643Z,58.88
2018-03-03T06:51:24.109Z,58.89
2018-03-03T06:53:52.486Z,58.64
2018-03-03T06:56:20.853Z,58.59
2018-03-03T06:58:49.463Z,58.45
2018-03-03T07:01:17.859Z,58.23
2018-03-03T07:03:46.191Z,58.33
2018-03-03T07:06:15.314Z,57.82
2018-03-03T07:08:43.636Z,57.66
2018-03-03T07:11:11.949Z,57.12
2018-03-03T07:13:41.081Z,57.40
2018-03-03T07:16:09.403Z,57.38
2018-03-03T07:18:37.708Z,56.95
2018-03-03T07:21:07.007Z,56.61
2018-03-03T07:23:35.323Z,55.80
2018-03-03T07:26:03.637Z,55.98
2018-03-03T07:28:31.959Z,55.83
2018-03-03T07:31:01.039Z,55.48
2018-03-03T07:33:29.369Z,55.18
2018-03-03T07:35:57.683Z,55.15
2018-03-03T07:38:26.009Z,54.77
2018-03-03T07:40:55.095Z,54.65
2018-03-03T07:43:24.207Z,54.11
2018-03-03T07:45:53.307Z,53.54
2018-03-03T07:48:22.473Z,53.99
2018-03-03T07:50:50.813Z,53.84
2018-03-03T07:53:19.143Z,52.83
2018-03-03T07:55:49.089Z,52.43
2018-03-03T08:01:31.288Z,51.73
2018-03-03T08:03:59.607Z,51.40
2018-03-03T08:06:27.905Z,51.04
2018-03-03T08:08:56.224Z,50.46
2018-03-03T08:11:25.323Z,50.54
2018-03-03T08:13:54.459Z,50.25
2018-03-03T08:16:22.901Z,50.27
2018-03-03T08:18:51.993Z,49.19
2018-03-03T08:21:21.087Z,48.65
2018-03-03T08:23:49.406Z,48.75
2018-03-03T08:26:17.741Z,47.96
2018-03-03T08:28:46.057Z,47.64
2018-03-03T08:31:14.602Z,46.91
2018-03-03T08:33:42.921Z,47.13
2018-03-03T08:36:11.234Z,47.17
2018-03-03T08:38:39.546Z,46.39
2018-03-03T08:41:07.879Z,46.04
2018-03-03T08:43:36.164Z,45.87
2018-03-03T08:46:04.497Z,45.69
2018-03-03T08:48:33.592Z,44.78
2018-03-03T08:51:02.669Z,44.92
2018-03-03T08:53:30.968Z,44.20
2018-03-03T08:56:00.060Z,44.32
2018-03-03T08:58:29.145Z,43.83
2018-03-03T09:00:57.461Z,43.29
2018-03-03T09:03:26.551Z,43.19
2018-03-03T09:05:55.629Z,42.79
2018-03-03T09:08:24.745Z,42.44
2018-03-03T09:10:53.841Z,42.33
2018-03-03T09:13:23.027Z,41.98
2018-03-03T09:18:27.494Z,40.73
2018-03-03T09:20:58.530Z,40.71
2018-03-03T09:23:29.295Z,40.12
2018-03-03T09:26:00.501Z,40.32
2018-03-03T09:28:33.084Z,40.12
2018-03-03T09:31:03.431Z,39.94
2018-03-03T09:33:33.164Z,39.86
2018-03-03T09:36:02.406Z,39.58
2018-03-03T09:38:30.705Z,39.24
2018-03-03T09:41:00.077Z,38.74
2018-03-03T09:43:28.625Z,38.16
2018-03-03T09:45:56.935Z,38.09
2018-03-03T09:48:25.243Z,37.43
2018-03-03T09:50:53.562Z,37.01
2018-03-03T09:53:22.305Z,36.45
2018-03-03T09:55:51.039Z,36.21
2018-03-03T09:58:19.953Z,35.34
2018-03-03T10:00:48.431Z,35.56
2018-03-03T10:03:16.737Z,35.34
2018-03-03T10:05:45.054Z,34.73
2018-03-03T10:08:14.266Z,34.05
2018-03-03T10:10:42.565Z,34.22
2018-03-03T10:13:10.949Z,33.63
2018-03-03T10:15:39.286Z,33.72
2018-03-03T10:18:08.409Z,33.36
2018-03-03T10:20:37.497Z,33.37
2018-03-03T10:23:06.574Z,32.99
2018-03-03T10:25:35.719Z,32.74
2018-03-03T10:28:04.015Z,32.86
2018-03-03T10:30:33.262Z,32.38
2018-03-03T10:33:02.399Z,32.54
2018-03-03T10:35:30.817Z,31.78
2018-03-03T10:37:59.111Z,31.73
2018-03-03T10:40:28.190Z,31.43
2018-03-03T10:42:57.582Z,30.92
2018-03-03T10:45:25.926Z,30.74
2018-03-03T10:47:54.246Z,30.70
2018-03-03T10:50:22.548Z,29.95
2018-03-03T10:52:50.875Z,30.08
2018-03-03T10:55:19.204Z,29.13
2018-03-03T10:57:47.539Z,28.67
2018-03-03T11:00:29.257Z,28.57
2018-03-03T11:02:57.589Z,28.11
2018-03-03T11:05:26.689Z,27.77
2018-03-03T11:07:55.800Z,27.23
2018-03-03T11:10:24.138Z,26.49
2018-03-03T11:12:52.609Z,26.11
2018-03-03T11:15:20.966Z,25.77
2018-03-03T11:17:49.288Z,25.32
2018-03-03T11:20:17.592Z,25.29
2018-03-03T11:22:45.922Z,25.00
2018-03-03T11:25:14.230Z,24.55
2018-03-03T11:27:42.557Z,24.20
2018-03-03T11:30:10.878Z,24.26
2018-03-03T11:32:39.209Z,24.44
2018-03-03T11:35:07.528Z,24.91
2018-03-03T11:37:35.826Z,24.85
2018-03-03T11:40:04.136Z,24.50
2018-03-03T11:42:33.235Z,24.60
2018-03-03T11:45:03.117Z,24.71
2018-03-03T11:47:31.467Z,24.61
2018-03-03T11:49:59.774Z,24.74
2018-03-03T11:52:28.088Z,24.39
2018-03-03T11:54:57.218Z,24.67
2018-03-03T11:57:26.435Z,24.65
2018-03-03T11:59:54.761Z,24.11
2018-03-03T12:02:23.906Z,23.71
2018-03-03T12:04:52.248Z,23.02
2018-03-03T12:07:21.339Z,22.94
2018-03-03T12:09:49.651Z,22.95
2018-03-03T12:12:17.984Z,22.89
2018-03-03T12:14:46.303Z,23.16
2018-03-03T12:17:14.701Z,23.43
2018-03-03T12:19:43.049Z,23.80
2018-03-03T12:22:12.190Z,23.50
2018-03-03T12:24:40.508Z,23.39
2018-03-03T12:27:09.665Z,23.53
2018-03-03T12:29:37.992Z,23.39
2018-03-03T12:32:07.117Z,23.89
2018-03-03T12:34:35.563Z,23.88
2018-03-03T12:37:03.887Z,23.75
2018-03-03T12:39:32.981Z,23.91
2018-03-03T12:42:01.314Z,24.02
2018-03-03T12:44:29.646Z,24.21
2018-03-03T12:46:57.995Z,24.19
2018-03-03T12:49:26.305Z,24.37
2018-03-03T12:51:56.237Z,24.55
2018-03-03T12:54:24.547Z,24.65
2018-03-03T12:56:52.864Z,25.59
2018-03-03T12:59:21.201Z,26.06
2018-03-03T13:01:49.511Z,26.46
2018-03-03T13:04:17.834Z,27.06
2018-03-03T13:06:46.200Z,27.38
2018-03-03T13:09:14.485Z,28.25
2018-03-03T13:11:43.612Z,29.03
2018-03-03T13:14:11.946Z,29.59
2018-03-03T13:16:40.271Z,30.07
2018-03-03T13:19:08.598Z,30.34
2018-03-03T13:21:36.916Z,30.21
2018-03-03T13:24:05.289Z,30.47
2018-03-03T13:26:34.601Z,30.67
2018-03-03T13:29:02.909Z,30.66
2018-03-03T13:31:31.345Z,30.34
2018-03-03T13:34:00.431Z,29.67
2018-03-03T13:36:29.540Z,29.39
2018-03-03T13:38:58.622Z,28.86
2018-03-03T13:41:26.973Z,28.17
2018-03-03T13:43:55.287Z,27.76
2018-03-03T13:46:23.683Z,27.74
2018-03-03T13:48:52.825Z,27.66
2018-03-03T13:51:21.147Z,27.80
2018-03-03T13:53:49.471Z,27.85
2018-03-03T13:56:17.771Z,28.31
2018-03-03T13:58:46.083Z,28.10
2018-03-03T14:01:14.429Z,28.62
2018-03-03T14:03:42.741Z,28.77
2018-03-03T14:06:11.061Z,28.79
2018-03-03T14:08:39.371Z,28.65
2018-03-03T14:11:07.844Z,29.17
2018-03-03T14:13:36.169Z,29.44
2018-03-03T14:16:04.502Z,29.74
2018-03-03T14:18:32.869Z,29.87
2018-03-03T14:21:01.182Z,29.61
2018-03-03T14:23:29.521Z,29.97
2018-03-03T14:25:58.594Z,30.02
2018-03-03T14:28:26.923Z,30.03
2018-03-03T14:30:55.261Z,30.00
2018-03-03T14:33:23.595Z,30.36
2018-03-03T14:35:51.909Z,30.82
2018-03-03T14:38:21.780Z,30.71
2018-03-03T14:40:50.095Z,30.88
2018-03-03T14:43:18.441Z,31.11
2018-03-03T14:45:46.835Z,31.23
2018-03-03T14:48:15.158Z,31.18
2018-03-03T14:50:44.059Z,31.29
2018-03-03T14:53:12.484Z,31.25
2018-03-03T14:55:40.805Z,31.54
2018-03-03T14:58:10.640Z,31.82
2018-03-03T15:00:38.959Z,32.07
2018-03-03T15:03:07.314Z,32.28
2018-03-03T15:05:35.594Z,32.71
2018-03-03T15:08:04.660Z,33.12
2018-03-03T15:10:32.964Z,33.57
2018-03-03T15:13:02.036Z,34.00
2018-03-03T15:15:30.338Z,34.35
2018-03-03T15:17:59.405Z,35.00
2018-03-03T15:20:27.748Z,35.46
2018-03-03T15:22:56.057Z,35.79
2018-03-03T15:25:24.381Z,35.96
2018-03-03T15:27:53.483Z,36.01
2018-03-03T15:30:21.803Z,36.35
2018-03-03T15:32:50.107Z,36.34
2018-03-03T15:35:18.446Z,36.42
2018-03-03T15:37:46.756Z,36.64
2018-03-03T15:40:15.067Z,37.01
2018-03-03T15:42:44.172Z,37.53
2018-03-03T15:45:13.245Z,38.07
2018-03-03T15:47:41.562Z,38.44
2018-03-03T15:50:10.633Z,38.82
2018-03-03T15:52:38.992Z,38.91
2018-03-03T15:55:07.260Z,39.01
2018-03-03T15:57:35.582Z,39.28
2018-03-03T16:00:05.406Z,39.25
2018-03-03T16:02:34.478Z,39.49
2018-03-03T16:05:02.794Z,39.48
2018-03-03T16:07:31.931Z,39.54
2018-03-03T16:10:00.263Z,39.69
2018-03-03T16:12:28.847Z,39.67
2018-03-03T16:14:57.957Z,39.96
2018-03-03T16:17:29.109Z,40.11
2018-03-03T16:19:57.512Z,40.06
2018-03-03T16:22:25.821Z,40.12
2018-03-03T16:24:54.112Z,40.25
2018-03-03T16:27:22.496Z,40.75
2018-03-03T16:29:50.793Z,41.04
2018-03-03T16:32:20.229Z,41.18
2018-03-03T16:34:48.630Z,41.40
2018-03-03T16:37:16.913Z,41.66
2018-03-03T16:39:45.256Z,41.93
2018-03-03T16:42:14.351Z,42.14
2018-03-03T16:44:43.432Z,42.83
2018-03-03T16:47:13.264Z,43.45
2018-03-03T16:49:43.101Z,43.85
2018-03-03T16:52:11.410Z,44.29
2018-03-03T16:54:39.714Z,44.22
2018-03-03T16:57:08.026Z,44.45
2018-03-03T16:59:36.366Z,44.99
2018-03-03T17:02:04.686Z,44.94
2018-03-03T17:04:33.070Z,45.21
2018-03-03T17:07:02.221Z,45.34
2018-03-03T17:09:30.554Z,45.68
2018-03-03T17:11:59.655Z,45.77
2018-03-03T17:14:27.971Z,45.95
2018-03-03T17:16:56.296Z,46.11
2018-03-03T17:19:25.451Z,46.31
2018-03-03T17:21:53.766Z,46.57
2018-03-03T17:24:22.077Z,46.60
2018-03-03T17:26:50.398Z,46.85
2018-03-03T17:29:18.749Z,47.37
2018-03-03T17:31:47.052Z,47.48
2018-03-03T17:34:15.354Z,47.82
2018-03-03T17:36:43.660Z,48.06
2018-03-03T17:39:12.776Z,48.39
2018-03-03T17:41:41.105Z,48.29
2018-03-03T17:44:09.572Z,48.70
2018-03-03T17:46:37.903Z,48.76
2018-03-03T17:49:07.003Z,48.78
2018-03-03T17:51:36.110Z,48.94
2018-03-03T17:54:05.191Z,49.00
2018-03-03T17:56:33.508Z,49.11
2018-03-03T17:59:01.832Z,49.40
2018-03-03T18:01:30.166Z,49.49
2018-03-03T18:03:58.472Z,49.51
2018-03-03T18:06:26.784Z,49.67
2018-03-03T18:08:55.110Z,49.79
2018-03-03T18:11:23.430Z,49.58
2018-03-03T18:13:56.566Z,49.55
2018-03-03T18:16:25.634Z,49.51
2018-03-03T18:18:53.942Z,49.58
2018-03-03T18:21:23.021Z,49.65
2018-03-03T18:23:52.127Z,49.64
2018-03-03T18:26:21.209Z,49.46
2018-03-03T18:28:49.528Z,49.51
2018-03-03T18:31:17.844Z,49.72
2018-03-03T18:33:46.166Z,49.50
2018-03-03T18:36:15.231Z,49.57
2018-03-03T18:38:43.555Z,49.59
2018-03-03T18:41:12.644Z,49.68
2018-03-03T18:43:41.722Z,49.80
2018-03-03T18:46:10.038Z,50.06
2018-03-03T18:48:38.349Z,50.19
2018-03-03T18:51:06.668Z,50.50
2018-03-03T18:53:35.756Z,50.46
2018-03-03T18:56:04.080Z,50.90
2018-03-03T18:58:32.431Z,51.25
2018-03-03T19:01:00.771Z,51.68
2018-03-03T19:03:29.073Z,52.01
2018-03-03T19:05:57.425Z,52.41
2018-03-03T19:08:25.768Z,52.76
2018-03-03T19:10:54.097Z,52.98
2018-03-03T19:13:22.432Z,54.41
2018-03-03T19:15:50.775Z,54.50
2018-03-03T19:18:19.094Z,54.40
2018-03-03T19:20:47.419Z,54.61
2018-03-03T19:23:15.822Z,54.79
2018-03-03T19:25:44.139Z,55.12
2018-03-03T19:28:13.216Z,55.37
2018-03-03T19:30:41.560Z,55.67
2018-03-03T19:33:09.867Z,55.90
2018-03-03T19:35:38.188Z,56.12
2018-03-03T19:38:06.636Z,56.47
2018-03-03T19:40:34.924Z,56.90
2018-03-03T19:43:03.249Z,57.00
2018-03-03T19:45:31.578Z,57.31
2018-03-03T19:47:59.914Z,57.23
2018-03-03T19:50:28.229Z,57.37
2018-03-03T19:52:56.576Z,57.54
2018-03-03T19:55:24.940Z,57.66
2018-03-03T19:57:53.252Z,57.56
2018-03-03T20:00:21.590Z,57.65
2018-03-03T20:02:50.684Z,57.78
2018-03-03T20:05:19.787Z,58.02
2018-03-03T20:07:48.149Z,58.09
2018-03-03T20:10:17.242Z,58.34
2018-03-03T20:12:45.569Z,58.48
2018-03-03T20:15:13.906Z,58.64
2018-03-03T20:17:42.322Z,58.62
2018-03-03T20:20:12.216Z,58.81
2018-03-03T20:22:40.559Z,59.17
2018-03-03T20:25:08.884Z,59.27
2018-03-03T20:27:37.992Z,59.67
2018-03-03T20:30:06.298Z,59.60
2018-03-03T20:32:34.612Z,59.74
2018-03-03T20:35:02.942Z,59.76
2018-03-03T20:37:32.156Z,59.84
2018-03-03T20:40:00.466Z,59.72
2018-03-03T20:42:28.840Z,59.54
2018-03-03T20:44:57.154Z,59.38
2018-03-03T20:47:25.478Z,59.43
2018-03-03T20:49:53.912Z,59.53
2018-03-03T20:52:22.274Z,59.37
2018-03-03T20:54:50.625Z,59.27
2018-03-03T20:57:18.930Z,59.19
2018-03-03T20:59:47.292Z,59.25
2018-03-03T21:02:15.616Z,59.32
2018-03-03T21:04:43.925Z,59.21
2018-03-03T21:07:13.018Z,59.16
2018-03-03T21:09:42.114Z,59.02
2018-03-03T21:12:13.437Z,59.03
2018-03-03T21:14:41.769Z,59.34
2018-03-03T21:17:10.347Z,59.40
2018-03-03T21:19:38.659Z,59.71
2018-03-03T21:22:07.114Z,59.85
2018-03-03T21:24:35.412Z,59.97
2018-03-03T21:27:03.718Z,60.05
2018-03-03T21:29:32.140Z,60.07
2018-03-03T21:32:00.458Z,59.88
2018-03-03T21:34:28.794Z,60.00
2018-03-03T21:36:57.884Z,60.04
2018-03-03T21:39:28.262Z,60.07
2018-03-03T21:41:56.649Z,60.32
2018-03-03T21:44:24.964Z,60.54
2018-03-03T21:46:53.278Z,60.71
2018-03-03T21:49:21.593Z,60.96
2018-03-03T21:51:49.930Z,61.23
2018-03-03T21:54:19.326Z,61.34
2018-03-03T21:56:48.418Z,61.61
2018-03-03T21:59:17.534Z,61.90
2018-03-03T22:01:45.843Z,62.04
2018-03-03T22:04:14.152Z,62.31
2018-03-03T22:06:42.499Z,62.43
2018-03-03T22:09:10.803Z,62.57
2018-03-03T22:11:41.700Z,62.66
2018-03-03T22:14:10.537Z,62.88
2018-03-03T22:16:38.866Z,63.18
2018-03-03T22:19:07.191Z,63.14
2018-03-03T22:21:35.524Z,63.47
2018-03-03T22:24:04.777Z,63.58
2018-03-03T22:26:33.128Z,63.75
2018-03-03T22:29:01.511Z,63.86
2018-03-03T22:31:29.819Z,64.13
2018-03-03T22:33:58.139Z,64.41
2018-03-03T22:36:26.460Z,64.57
2018-03-03T22:38:56.794Z,64.71
2018-03-03T22:41:25.287Z,64.67
2018-03-03T22:43:55.747Z,64.84
2018-03-03T22:46:29.135Z,66.01
2018-03-03T22:48:57.889Z,65.88
2018-03-03T22:51:26.298Z,65.63
2018-03-03T22:53:54.698Z,65.45
2018-03-03T22:56:23.820Z,65.49
2018-03-03T22:58:52.916Z,65.56
2018-03-03T23:01:22.008Z,65.68
2018-03-03T23:03:51.081Z,65.65
2018-03-03T23:06:20.098Z,65.71
2018-03-03T23:08:49.191Z,65.89
2018-03-03T23:11:17.689Z,66.05
2018-03-03T23:13:47.009Z,66.08
2018-03-03T23:16:15.374Z,66.39
2018-03-03T23:18:44.505Z,66.49
2018-03-03T23:21:12.824Z,66.63
2018-03-03T23:23:41.142Z,67.02
2018-03-03T23:26:09.474Z,67.12
2018-03-03T23:28:37.805Z,67.31
2018-03-03T23:31:06.145Z,67.38
2018-03-03T23:33:35.272Z,67.52
2018-03-03T23:36:04.387Z,67.76
2018-03-03T23:38:32.719Z,67.80
2018-03-03T23:41:01.051Z,67.98
2018-03-03T23:43:29.385Z,68.22
2018-03-03T23:45:57.701Z,68.50
2018-03-03T23:48:26.824Z,68.62
2018-03-03T23:50:55.153Z,68.69
2018-03-03T23:53:23.477Z,68.83
2018-03-03T23:55:51.797Z,68.78
2018-03-03T23:58:20.159Z,68.76
